sensor_id;sensor_type;location;lat;lon;timestamp;temperature;humidity
530;DHT22;251;48.704;9.210;2023-04-25T00:01:37;6.70;51.70
530;DHT22;251;48.704;9.210;2023-04-25T00:04:04;6.80;51.60
530;DHT22;251;48.704;9.210;2023-04-25T00:06:31;6.80;52.00
530;DHT22;251;48.704;9.210;2023-04-25T00:09:01;6.70;52.30
530;DHT22;251;48.704;9.210;2023-04-25T00:11:29;6.90;52.90
530;DHT22;251;48.704;9.210;2023-04-25T00:13:56;6.90;53.70
530;DHT22;251;48.704;9.210;2023-04-25T00:16:26;6.90;53.60
530;DHT22;251;48.704;9.210;2023-04-25T00:18:54;6.70;53.30
530;DHT22;251;48.704;9.210;2023-04-25T00:21:21;6.90;54.40
530;DHT22;251;48.704;9.210;2023-04-25T00:23:49;6.80;54.70
530;DHT22;251;48.704;9.210;2023-04-25T00:26:16;6.80;54.40
530;DHT22;251;48.704;9.210;2023-04-25T00:28:43;6.70;54.30
530;DHT22;251;48.704;9.210;2023-04-25T00:31:10;6.70;55.60
530;DHT22;251;48.704;9.210;2023-04-25T00:33:38;6.90;55.60
530;DHT22;251;48.704;9.210;2023-04-25T00:36:06;6.70;56.70
530;DHT22;251;48.704;9.210;2023-04-25T00:38:33;6.80;57.10
530;DHT22;251;48.704;9.210;2023-04-25T00:41:00;6.80;57.10
530;DHT22;251;48.704;9.210;2023-04-25T00:43:27;6.70;57.10
530;DHT22;251;48.704;9.210;2023-04-25T00:45:54;6.80;56.50
530;DHT22;251;48.704;9.210;2023-04-25T00:48:23;7.00;57.10
530;DHT22;251;48.704;9.210;2023-04-25T00:50:53;6.80;56.80
530;DHT22;251;48.704;9.210;2023-04-25T00:53:20;6.70;56.40
530;DHT22;251;48.704;9.210;2023-04-25T00:55:47;6.80;56.00
530;DHT22;251;48.704;9.210;2023-04-25T00:58:16;6.70;55.60
530;DHT22;251;48.704;9.210;2023-04-25T01:00:45;6.80;54.80
530;DHT22;251;48.704;9.210;2023-04-25T01:03:12;6.90;55.20
530;DHT22;251;48.704;9.210;2023-04-25T01:05:40;6.80;55.70
530;DHT22;251;48.704;9.210;2023-04-25T01:08:09;6.80;56.10
530;DHT22;251;48.704;9.210;2023-04-25T01:10:37;7.00;56.50
530;DHT22;251;48.704;9.210;2023-04-25T01:13:03;6.80;57.10
530;DHT22;251;48.704;9.210;2023-04-25T01:15:30;7.10;57.80
530;DHT22;251;48.704;9.210;2023-04-25T01:17:57;7.10;57.30
530;DHT22;251;48.704;9.210;2023-04-25T01:20:26;7.00;57.10
530;DHT22;251;48.704;9.210;2023-04-25T01:22:57;7.20;56.40
530;DHT22;251;48.704;9.210;2023-04-25T01:25:24;7.00;56.90
530;DHT22;251;48.704;9.210;2023-04-25T01:27:51;7.10;57.60
530;DHT22;251;48.704;9.210;2023-04-25T01:30:18;6.90;59.10
530;DHT22;251;48.704;9.210;2023-04-25T01:32:46;7.20;60.70
530;DHT22;251;48.704;9.210;2023-04-25T01:35:13;6.80;64.00
530;DHT22;251;48.704;9.210;2023-04-25T01:37:41;7.20;65.10
530;DHT22;251;48.704;9.210;2023-04-25T01:40:12;7.00;66.70
530;DHT22;251;48.704;9.210;2023-04-25T01:42:43;6.80;70.50
530;DHT22;251;48.704;9.210;2023-04-25T01:45:11;7.10;70.00
530;DHT22;251;48.704;9.210;2023-04-25T01:47:38;6.70;68.50
530;DHT22;251;48.704;9.210;2023-04-25T01:50:08;6.80;68.00
530;DHT22;251;48.704;9.210;2023-04-25T01:52:36;6.80;68.20
530;DHT22;251;48.704;9.210;2023-04-25T01:55:03;6.70;63.80
530;DHT22;251;48.704;9.210;2023-04-25T01:57:34;6.80;62.40
530;DHT22;251;48.704;9.210;2023-04-25T02:00:04;6.80;63.00
530;DHT22;251;48.704;9.210;2023-04-25T02:02:38;6.80;61.80
530;DHT22;251;48.704;9.210;2023-04-25T02:05:10;6.90;62.30
530;DHT22;251;48.704;9.210;2023-04-25T02:07:39;6.90;62.40
530;DHT22;251;48.704;9.210;2023-04-25T02:10:07;6.70;63.00
530;DHT22;251;48.704;9.210;2023-04-25T02:12:40;6.80;63.40
530;DHT22;251;48.704;9.210;2023-04-25T02:15:21;6.80;62.80
530;DHT22;251;48.704;9.210;2023-04-25T02:17:55;6.80;64.60
530;DHT22;251;48.704;9.210;2023-04-25T02:20:23;6.40;64.40
530;DHT22;251;48.704;9.210;2023-04-25T02:22:50;6.70;66.40
530;DHT22;251;48.704;9.210;2023-04-25T02:25:17;6.70;67.10
530;DHT22;251;48.704;9.210;2023-04-25T02:27:47;6.60;67.30
530;DHT22;251;48.704;9.210;2023-04-25T02:30:14;6.80;66.90
530;DHT22;251;48.704;9.210;2023-04-25T02:32:41;6.60;66.90
530;DHT22;251;48.704;9.210;2023-04-25T02:35:08;6.60;64.60
530;DHT22;251;48.704;9.210;2023-04-25T02:37:37;6.40;64.10
530;DHT22;251;48.704;9.210;2023-04-25T02:40:05;6.70;67.50
530;DHT22;251;48.704;9.210;2023-04-25T02:42:32;6.70;70.30
530;DHT22;251;48.704;9.210;2023-04-25T02:45:00;6.50;70.10
530;DHT22;251;48.704;9.210;2023-04-25T02:47:28;6.70;73.60
530;DHT22;251;48.704;9.210;2023-04-25T02:49:55;6.40;74.60
530;DHT22;251;48.704;9.210;2023-04-25T02:52:21;6.50;76.40
530;DHT22;251;48.704;9.210;2023-04-25T02:54:56;6.60;76.70
530;DHT22;251;48.704;9.210;2023-04-25T02:57:24;6.50;75.70
530;DHT22;251;48.704;9.210;2023-04-25T02:59:51;6.40;77.80
530;DHT22;251;48.704;9.210;2023-04-25T03:02:19;6.50;78.10
530;DHT22;251;48.704;9.210;2023-04-25T03:04:46;6.60;77.80
530;DHT22;251;48.704;9.210;2023-04-25T03:07:13;6.50;77.60
530;DHT22;251;48.704;9.210;2023-04-25T03:09:40;6.20;76.50
530;DHT22;251;48.704;9.210;2023-04-25T03:12:07;6.20;80.20
530;DHT22;251;48.704;9.210;2023-04-25T03:14:34;6.10;84.50
530;DHT22;251;48.704;9.210;2023-04-25T03:17:00;6.10;82.70
530;DHT22;251;48.704;9.210;2023-04-25T03:19:29;6.10;84.00
530;DHT22;251;48.704;9.210;2023-04-25T03:21:55;6.20;86.00
530;DHT22;251;48.704;9.210;2023-04-25T03:24:22;6.00;87.50
530;DHT22;251;48.704;9.210;2023-04-25T03:26:49;6.20;91.30
530;DHT22;251;48.704;9.210;2023-04-25T03:29:16;6.20;90.50
530;DHT22;251;48.704;9.210;2023-04-25T03:31:44;6.20;88.90
530;DHT22;251;48.704;9.210;2023-04-25T03:34:11;6.20;88.20
530;DHT22;251;48.704;9.210;2023-04-25T03:36:41;6.00;87.80
530;DHT22;251;48.704;9.210;2023-04-25T03:39:09;6.40;88.80
530;DHT22;251;48.704;9.210;2023-04-25T03:41:37;6.40;85.40
530;DHT22;251;48.704;9.210;2023-04-25T03:44:10;6.20;85.40
530;DHT22;251;48.704;9.210;2023-04-25T03:46:37;6.50;85.50
530;DHT22;251;48.704;9.210;2023-04-25T03:49:04;6.10;85.20
530;DHT22;251;48.704;9.210;2023-04-25T03:51:57;6.20;85.10
530;DHT22;251;48.704;9.210;2023-04-25T03:54:25;6.20;83.50
530;DHT22;251;48.704;9.210;2023-04-25T03:57:01;6.10;84.10
530;DHT22;251;48.704;9.210;2023-04-25T03:59:31;6.10;84.10
530;DHT22;251;48.704;9.210;2023-04-25T04:01:58;6.10;84.70
530;DHT22;251;48.704;9.210;2023-04-25T04:04:25;6.10;86.50
530;DHT22;251;48.704;9.210;2023-04-25T04:06:52;6.20;88.50
530;DHT22;251;48.704;9.210;2023-04-25T04:09:30;6.20;89.70
530;DHT22;251;48.704;9.210;2023-04-25T04:11:58;6.10;88.70
530;DHT22;251;48.704;9.210;2023-04-25T04:14:28;6.10;89.20
530;DHT22;251;48.704;9.210;2023-04-25T04:16:55;6.20;89.70
530;DHT22;251;48.704;9.210;2023-04-25T04:19:22;5.90;89.70
530;DHT22;251;48.704;9.210;2023-04-25T04:21:58;5.70;89.60
530;DHT22;251;48.704;9.210;2023-04-25T04:24:25;5.70;89.70
530;DHT22;251;48.704;9.210;2023-04-25T04:26:59;5.80;90.00
530;DHT22;251;48.704;9.210;2023-04-25T04:29:33;5.80;90.00
530;DHT22;251;48.704;9.210;2023-04-25T04:32:07;5.90;90.30
530;DHT22;251;48.704;9.210;2023-04-25T04:34:35;5.90;90.00
530;DHT22;251;48.704;9.210;2023-04-25T04:37:03;6.10;89.30
530;DHT22;251;48.704;9.210;2023-04-25T04:39:30;6.10;89.30
530;DHT22;251;48.704;9.210;2023-04-25T04:42:17;6.10;89.20
530;DHT22;251;48.704;9.210;2023-04-25T04:45:11;5.90;90.00
530;DHT22;251;48.704;9.210;2023-04-25T04:47:57;6.10;91.10
530;DHT22;251;48.704;9.210;2023-04-25T04:50:43;6.20;90.40
530;DHT22;251;48.704;9.210;2023-04-25T04:53:16;6.20;90.50
530;DHT22;251;48.704;9.210;2023-04-25T04:56:04;6.20;90.70
530;DHT22;251;48.704;9.210;2023-04-25T04:58:51;6.10;91.10
530;DHT22;251;48.704;9.210;2023-04-25T05:01:37;6.40;91.30
530;DHT22;251;48.704;9.210;2023-04-25T05:04:15;6.40;90.40
530;DHT22;251;48.704;9.210;2023-04-25T05:06:57;6.40;88.40
530;DHT22;251;48.704;9.210;2023-04-25T05:09:45;6.50;83.80
530;DHT22;251;48.704;9.210;2023-04-25T05:12:47;6.80;80.30
530;DHT22;251;48.704;9.210;2023-04-25T05:15:24;6.70;78.50
530;DHT22;251;48.704;9.210;2023-04-25T05:18:10;6.80;78.80
530;DHT22;251;48.704;9.210;2023-04-25T05:20:56;6.80;79.00
530;DHT22;251;48.704;9.210;2023-04-25T05:23:46;6.80;79.30
530;DHT22;251;48.704;9.210;2023-04-25T05:26:51;6.70;76.20
530;DHT22;251;48.704;9.210;2023-04-25T05:29:42;7.40;76.10
530;DHT22;251;48.704;9.210;2023-04-25T05:32:24;6.90;74.90
530;DHT22;251;48.704;9.210;2023-04-25T05:34:51;7.10;74.40
530;DHT22;251;48.704;9.210;2023-04-25T05:37:23;7.20;70.20
530;DHT22;251;48.704;9.210;2023-04-25T05:40:09;7.20;69.30
530;DHT22;251;48.704;9.210;2023-04-25T05:42:36;7.60;65.10
530;DHT22;251;48.704;9.210;2023-04-25T05:45:24;7.80;64.00
530;DHT22;251;48.704;9.210;2023-04-25T05:48:12;7.70;59.80
530;DHT22;251;48.704;9.210;2023-04-25T05:50:55;7.80;57.10
530;DHT22;251;48.704;9.210;2023-04-25T05:53:37;7.90;58.60
530;DHT22;251;48.704;9.210;2023-04-25T05:56:05;8.10;58.40
530;DHT22;251;48.704;9.210;2023-04-25T05:58:32;8.20;56.50
530;DHT22;251;48.704;9.210;2023-04-25T06:00:59;8.10;53.60
530;DHT22;251;48.704;9.210;2023-04-25T06:03:29;8.50;53.70
530;DHT22;251;48.704;9.210;2023-04-25T06:05:57;8.40;47.90
530;DHT22;251;48.704;9.210;2023-04-25T06:08:25;8.40;46.60
530;DHT22;251;48.704;9.210;2023-04-25T06:10:52;8.60;47.60
530;DHT22;251;48.704;9.210;2023-04-25T06:13:19;8.50;44.80
530;DHT22;251;48.704;9.210;2023-04-25T06:15:46;8.40;43.60
530;DHT22;251;48.704;9.210;2023-04-25T06:18:13;8.40;44.30
530;DHT22;251;48.704;9.210;2023-04-25T06:20:41;8.50;43.30
530;DHT22;251;48.704;9.210;2023-04-25T06:23:07;8.50;40.70
530;DHT22;251;48.704;9.210;2023-04-25T06:25:48;8.80;42.10
530;DHT22;251;48.704;9.210;2023-04-25T06:28:14;8.70;41.90
530;DHT22;251;48.704;9.210;2023-04-25T06:30:42;8.60;39.90
530;DHT22;251;48.704;9.210;2023-04-25T06:33:13;9.00;40.80
530;DHT22;251;48.704;9.210;2023-04-25T06:35:42;8.60;40.60
530;DHT22;251;48.704;9.210;2023-04-25T06:38:12;8.70;38.40
530;DHT22;251;48.704;9.210;2023-04-25T06:40:42;8.40;34.70
530;DHT22;251;48.704;9.210;2023-04-25T06:43:09;8.80;35.40
530;DHT22;251;48.704;9.210;2023-04-25T06:45:55;8.50;33.20
530;DHT22;251;48.704;9.210;2023-04-25T06:48:24;8.50;32.70
530;DHT22;251;48.704;9.210;2023-04-25T06:50:54;8.40;34.30
530;DHT22;251;48.704;9.210;2023-04-25T06:53:23;8.50;33.80
530;DHT22;251;48.704;9.210;2023-04-25T06:55:56;8.50;33.80
530;DHT22;251;48.704;9.210;2023-04-25T06:58:25;8.40;34.30
530;DHT22;251;48.704;9.210;2023-04-25T07:00:52;8.50;33.90
530;DHT22;251;48.704;9.210;2023-04-25T07:03:22;8.40;35.20
530;DHT22;251;48.704;9.210;2023-04-25T07:05:52;8.50;32.70
530;DHT22;251;48.704;9.210;2023-04-25T07:08:20;8.50;33.80
530;DHT22;251;48.704;9.210;2023-04-25T07:10:47;8.40;34.00
530;DHT22;251;48.704;9.210;2023-04-25T07:13:14;8.40;33.10
530;DHT22;251;48.704;9.210;2023-04-25T07:15:41;8.50;34.80
530;DHT22;251;48.704;9.210;2023-04-25T07:18:08;8.40;35.60
530;DHT22;251;48.704;9.210;2023-04-25T07:20:36;8.30;35.50
530;DHT22;251;48.704;9.210;2023-04-25T07:23:04;8.50;38.10
530;DHT22;251;48.704;9.210;2023-04-25T07:25:31;8.50;35.70
530;DHT22;251;48.704;9.210;2023-04-25T07:27:59;8.20;36.80
530;DHT22;251;48.704;9.210;2023-04-25T07:30:26;8.40;36.70
530;DHT22;251;48.704;9.210;2023-04-25T07:32:54;8.10;36.50
530;DHT22;251;48.704;9.210;2023-04-25T07:35:21;8.20;36.60
530;DHT22;251;48.704;9.210;2023-04-25T07:37:47;8.20;37.80
530;DHT22;251;48.704;9.210;2023-04-25T07:40:19;8.00;39.60
530;DHT22;251;48.704;9.210;2023-04-25T07:42:53;7.90;39.30
530;DHT22;251;48.704;9.210;2023-04-25T07:45:31;8.00;42.00
530;DHT22;251;48.704;9.210;2023-04-25T07:47:58;7.60;44.60
530;DHT22;251;48.704;9.210;2023-04-25T07:50:25;8.00;45.60
530;DHT22;251;48.704;9.210;2023-04-25T07:52:52;8.00;48.60
530;DHT22;251;48.704;9.210;2023-04-25T07:55:29;7.60;48.50
530;DHT22;251;48.704;9.210;2023-04-25T07:58:08;7.50;46.50
530;DHT22;251;48.704;9.210;2023-04-25T08:00:38;8.00;50.40
530;DHT22;251;48.704;9.210;2023-04-25T08:03:34;7.50;48.90
530;DHT22;251;48.704;9.210;2023-04-25T08:06:04;7.80;52.10
530;DHT22;251;48.704;9.210;2023-04-25T08:08:35;7.80;51.50
530;DHT22;251;48.704;9.210;2023-04-25T08:11:04;7.90;51.50
530;DHT22;251;48.704;9.210;2023-04-25T08:13:30;8.00;51.40
530;DHT22;251;48.704;9.210;2023-04-25T08:15:58;7.80;52.70
530;DHT22;251;48.704;9.210;2023-04-25T08:18:25;8.10;52.40
530;DHT22;251;48.704;9.210;2023-04-25T08:20:51;7.80;55.30
530;DHT22;251;48.704;9.210;2023-04-25T08:23:19;7.60;57.80
530;DHT22;251;48.704;9.210;2023-04-25T08:25:52;7.50;54.50
530;DHT22;251;48.704;9.210;2023-04-25T08:28:23;8.00;56.20
530;DHT22;251;48.704;9.210;2023-04-25T08:30:51;7.50;58.50
530;DHT22;251;48.704;9.210;2023-04-25T08:33:18;7.90;60.40
530;DHT22;251;48.704;9.210;2023-04-25T08:36:03;7.50;58.90
530;DHT22;251;48.704;9.210;2023-04-25T08:38:31;7.50;62.90
530;DHT22;251;48.704;9.210;2023-04-25T08:40:59;8.10;58.20
530;DHT22;251;48.704;9.210;2023-04-25T08:43:29;7.80;63.50
530;DHT22;251;48.704;9.210;2023-04-25T08:45:59;7.90;66.40
530;DHT22;251;48.704;9.210;2023-04-25T08:48:36;8.10;62.40
530;DHT22;251;48.704;9.210;2023-04-25T08:51:06;8.10;60.20
530;DHT22;251;48.704;9.210;2023-04-25T08:53:34;8.00;56.10
530;DHT22;251;48.704;9.210;2023-04-25T08:56:03;8.10;54.80
530;DHT22;251;48.704;9.210;2023-04-25T08:58:37;7.90;56.70
530;DHT22;251;48.704;9.210;2023-04-25T09:01:03;8.10;60.30
530;DHT22;251;48.704;9.210;2023-04-25T09:03:36;7.90;57.80
530;DHT22;251;48.704;9.210;2023-04-25T09:06:03;8.10;58.00
530;DHT22;251;48.704;9.210;2023-04-25T09:08:31;8.00;57.60
530;DHT22;251;48.704;9.210;2023-04-25T09:10:57;7.90;58.20
530;DHT22;251;48.704;9.210;2023-04-25T09:13:26;8.00;55.10
530;DHT22;251;48.704;9.210;2023-04-25T09:16:20;8.10;54.30
530;DHT22;251;48.704;9.210;2023-04-25T09:19:02;7.90;54.50
530;DHT22;251;48.704;9.210;2023-04-25T09:21:31;8.10;53.10
530;DHT22;251;48.704;9.210;2023-04-25T09:23:58;8.10;58.50
530;DHT22;251;48.704;9.210;2023-04-25T09:26:26;7.90;61.90
530;DHT22;251;48.704;9.210;2023-04-25T09:29:05;7.90;56.60
530;DHT22;251;48.704;9.210;2023-04-25T09:31:35;7.90;57.30
530;DHT22;251;48.704;9.210;2023-04-25T09:34:03;8.00;57.70
530;DHT22;251;48.704;9.210;2023-04-25T09:36:40;8.30;55.20
530;DHT22;251;48.704;9.210;2023-04-25T09:39:28;8.10;56.20
530;DHT22;251;48.704;9.210;2023-04-25T09:42:03;7.90;53.90
530;DHT22;251;48.704;9.210;2023-04-25T09:44:31;7.90;49.90
530;DHT22;251;48.704;9.210;2023-04-25T09:46:59;8.30;53.40
530;DHT22;251;48.704;9.210;2023-04-25T09:49:29;8.30;53.90
530;DHT22;251;48.704;9.210;2023-04-25T09:52:01;8.10;54.60
530;DHT22;251;48.704;9.210;2023-04-25T09:54:34;8.40;54.10
530;DHT22;251;48.704;9.210;2023-04-25T09:57:11;8.30;49.80
530;DHT22;251;48.704;9.210;2023-04-25T09:59:42;8.40;54.20
530;DHT22;251;48.704;9.210;2023-04-25T10:02:11;8.20;52.80
530;DHT22;251;48.704;9.210;2023-04-25T10:04:39;8.00;51.30
530;DHT22;251;48.704;9.210;2023-04-25T10:07:18;7.80;47.70
530;DHT22;251;48.704;9.210;2023-04-25T10:09:47;7.90;49.40
530;DHT22;251;48.704;9.210;2023-04-25T10:12:16;7.80;51.20
530;DHT22;251;48.704;9.210;2023-04-25T10:14:43;7.50;47.20
530;DHT22;251;48.704;9.210;2023-04-25T10:17:12;7.50;50.00
530;DHT22;251;48.704;9.210;2023-04-25T10:19:39;7.70;45.70
530;DHT22;251;48.704;9.210;2023-04-25T10:22:08;7.50;43.50
530;DHT22;251;48.704;9.210;2023-04-25T10:24:39;7.40;52.40
530;DHT22;251;48.704;9.210;2023-04-25T10:27:06;7.50;52.00
530;DHT22;251;48.704;9.210;2023-04-25T10:29:34;7.70;49.80
530;DHT22;251;48.704;9.210;2023-04-25T10:32:02;7.60;48.70
530;DHT22;251;48.704;9.210;2023-04-25T10:34:41;7.70;50.10
530;DHT22;251;48.704;9.210;2023-04-25T10:37:11;7.50;50.10
530;DHT22;251;48.704;9.210;2023-04-25T10:39:39;7.50;49.00
530;DHT22;251;48.704;9.210;2023-04-25T10:42:07;7.90;45.30
530;DHT22;251;48.704;9.210;2023-04-25T10:44:34;8.00;46.50
530;DHT22;251;48.704;9.210;2023-04-25T10:47:03;7.50;49.10
530;DHT22;251;48.704;9.210;2023-04-25T10:49:33;7.50;47.40
530;DHT22;251;48.704;9.210;2023-04-25T10:52:16;7.50;47.30
530;DHT22;251;48.704;9.210;2023-04-25T10:54:47;7.50;48.00
530;DHT22;251;48.704;9.210;2023-04-25T10:57:36;7.40;45.20
530;DHT22;251;48.704;9.210;2023-04-25T11:00:09;7.70;48.80
530;DHT22;251;48.704;9.210;2023-04-25T11:02:38;7.40;50.00
530;DHT22;251;48.704;9.210;2023-04-25T11:05:07;7.70;50.50
530;DHT22;251;48.704;9.210;2023-04-25T11:07:38;7.50;49.50
530;DHT22;251;48.704;9.210;2023-04-25T11:10:10;7.70;51.40
530;DHT22;251;48.704;9.210;2023-04-25T11:12:36;7.80;53.80
530;DHT22;251;48.704;9.210;2023-04-25T11:15:05;7.80;50.80
530;DHT22;251;48.704;9.210;2023-04-25T11:17:33;7.80;54.20
530;DHT22;251;48.704;9.210;2023-04-25T11:20:00;7.90;52.30
530;DHT22;251;48.704;9.210;2023-04-25T11:22:31;7.50;55.40
530;DHT22;251;48.704;9.210;2023-04-25T11:25:04;7.50;54.40
530;DHT22;251;48.704;9.210;2023-04-25T11:27:31;7.60;56.00
530;DHT22;251;48.704;9.210;2023-04-25T11:29:58;7.40;52.30
530;DHT22;251;48.704;9.210;2023-04-25T11:32:25;7.60;56.00
530;DHT22;251;48.704;9.210;2023-04-25T11:34:52;7.80;55.50
530;DHT22;251;48.704;9.210;2023-04-25T11:37:20;7.90;48.40
530;DHT22;251;48.704;9.210;2023-04-25T11:39:47;7.80;49.80
530;DHT22;251;48.704;9.210;2023-04-25T11:42:15;7.80;51.00
530;DHT22;251;48.704;9.210;2023-04-25T11:44:42;8.40;53.40
530;DHT22;251;48.704;9.210;2023-04-25T11:47:10;8.50;49.70
530;DHT22;251;48.704;9.210;2023-04-25T11:49:36;8.70;42.10
530;DHT22;251;48.704;9.210;2023-04-25T11:52:06;8.80;43.00
530;DHT22;251;48.704;9.210;2023-04-25T11:54:35;8.90;40.00
530;DHT22;251;48.704;9.210;2023-04-25T11:57:02;9.10;42.50
530;DHT22;251;48.704;9.210;2023-04-25T11:59:30;9.20;39.80
530;DHT22;251;48.704;9.210;2023-04-25T12:01:57;9.20;38.70
530;DHT22;251;48.704;9.210;2023-04-25T12:04:30;9.20;39.30
530;DHT22;251;48.704;9.210;2023-04-25T12:06:56;9.40;37.70
530;DHT22;251;48.704;9.210;2023-04-25T12:09:28;9.50;38.00
530;DHT22;251;48.704;9.210;2023-04-25T12:11:57;9.30;35.40
530;DHT22;251;48.704;9.210;2023-04-25T12:14:26;9.70;34.30
530;DHT22;251;48.704;9.210;2023-04-25T12:16:57;9.40;34.40
530;DHT22;251;48.704;9.210;2023-04-25T12:19:24;9.30;31.20
530;DHT22;251;48.704;9.210;2023-04-25T12:21:52;9.20;33.60
530;DHT22;251;48.704;9.210;2023-04-25T12:24:22;9.20;34.50
530;DHT22;251;48.704;9.210;2023-04-25T12:26:52;9.70;35.10
530;DHT22;251;48.704;9.210;2023-04-25T12:29:20;9.10;36.30
530;DHT22;251;48.704;9.210;2023-04-25T12:31:48;9.30;35.10
530;DHT22;251;48.704;9.210;2023-04-25T12:34:18;9.10;34.30
530;DHT22;251;48.704;9.210;2023-04-25T12:36:45;9.10;33.20
530;DHT22;251;48.704;9.210;2023-04-25T12:39:15;9.20;35.80
530;DHT22;251;48.704;9.210;2023-04-25T12:41:42;8.90;33.20
530;DHT22;251;48.704;9.210;2023-04-25T12:44:10;8.80;33.70
530;DHT22;251;48.704;9.210;2023-04-25T12:46:37;8.80;37.00
530;DHT22;251;48.704;9.210;2023-04-25T12:49:04;8.90;37.90
530;DHT22;251;48.704;9.210;2023-04-25T12:51:33;9.10;42.80
530;DHT22;251;48.704;9.210;2023-04-25T12:54:00;9.10;38.40
530;DHT22;251;48.704;9.210;2023-04-25T12:56:27;9.20;38.10
530;DHT22;251;48.704;9.210;2023-04-25T12:58:54;9.20;36.00
530;DHT22;251;48.704;9.210;2023-04-25T13:01:21;9.40;34.10
530;DHT22;251;48.704;9.210;2023-04-25T13:03:48;9.10;33.80
530;DHT22;251;48.704;9.210;2023-04-25T13:06:16;9.60;35.30
530;DHT22;251;48.704;9.210;2023-04-25T13:08:44;9.80;36.90
530;DHT22;251;48.704;9.210;2023-04-25T13:11:11;9.70;29.90
530;DHT22;251;48.704;9.210;2023-04-25T13:13:40;10.00;29.10
530;DHT22;251;48.704;9.210;2023-04-25T13:16:07;10.50;31.00
530;DHT22;251;48.704;9.210;2023-04-25T13:18:34;11.00;26.50
530;DHT22;251;48.704;9.210;2023-04-25T13:21:01;10.80;23.60
530;DHT22;251;48.704;9.210;2023-04-25T13:23:29;11.30;24.70
530;DHT22;251;48.704;9.210;2023-04-25T13:25:57;11.70;20.20
530;DHT22;251;48.704;9.210;2023-04-25T13:28:26;11.80;19.40
530;DHT22;251;48.704;9.210;2023-04-25T13:30:53;12.30;21.70
530;DHT22;251;48.704;9.210;2023-04-25T13:33:20;12.40;21.20
530;DHT22;251;48.704;9.210;2023-04-25T13:35:48;12.50;18.50
530;DHT22;251;48.704;9.210;2023-04-25T13:38:20;12.80;19.30
530;DHT22;251;48.704;9.210;2023-04-25T13:40:47;12.60;17.00
530;DHT22;251;48.704;9.210;2023-04-25T13:43:15;12.90;20.70
530;DHT22;251;48.704;9.210;2023-04-25T13:45:42;12.90;18.60
530;DHT22;251;48.704;9.210;2023-04-25T13:48:09;13.00;16.50
530;DHT22;251;48.704;9.210;2023-04-25T13:50:36;13.10;18.20
530;DHT22;251;48.704;9.210;2023-04-25T13:53:02;12.70;17.70
530;DHT22;251;48.704;9.210;2023-04-25T13:55:29;12.70;16.50
530;DHT22;251;48.704;9.210;2023-04-25T13:57:56;12.50;17.20
530;DHT22;251;48.704;9.210;2023-04-25T14:00:25;12.60;17.70
530;DHT22;251;48.704;9.210;2023-04-25T14:02:51;12.60;19.70
530;DHT22;251;48.704;9.210;2023-04-25T14:05:19;12.90;16.60
530;DHT22;251;48.704;9.210;2023-04-25T14:07:46;12.50;17.60
530;DHT22;251;48.704;9.210;2023-04-25T14:10:12;12.30;16.40
530;DHT22;251;48.704;9.210;2023-04-25T14:12:39;11.60;20.20
530;DHT22;251;48.704;9.210;2023-04-25T14:15:06;11.70;20.20
530;DHT22;251;48.704;9.210;2023-04-25T14:17:35;11.80;20.80
530;DHT22;251;48.704;9.210;2023-04-25T14:20:01;12.20;21.40
530;DHT22;251;48.704;9.210;2023-04-25T14:22:31;12.80;18.10
530;DHT22;251;48.704;9.210;2023-04-25T14:24:58;13.10;16.70
530;DHT22;251;48.704;9.210;2023-04-25T14:27:25;13.10;17.40
530;DHT22;251;48.704;9.210;2023-04-25T14:29:53;14.10;16.50
530;DHT22;251;48.704;9.210;2023-04-25T14:32:20;14.10;14.30
530;DHT22;251;48.704;9.210;2023-04-25T14:34:48;15.40;16.00
530;DHT22;251;48.704;9.210;2023-04-25T14:37:15;16.20;9.20
530;DHT22;251;48.704;9.210;2023-04-25T14:39:42;17.20;8.40
530;DHT22;251;48.704;9.210;2023-04-25T14:42:09;17.00;6.40
530;DHT22;251;48.704;9.210;2023-04-25T14:44:37;16.60;7.20
530;DHT22;251;48.704;9.210;2023-04-25T14:47:04;16.70;7.20
530;DHT22;251;48.704;9.210;2023-04-25T14:49:32;16.20;6.10
530;DHT22;251;48.704;9.210;2023-04-25T14:52:00;16.20;8.10
530;DHT22;251;48.704;9.210;2023-04-25T14:54:27;16.50;6.50
530;DHT22;251;48.704;9.210;2023-04-25T14:56:54;16.40;7.50
530;DHT22;251;48.704;9.210;2023-04-25T14:59:23;16.30;4.80
530;DHT22;251;48.704;9.210;2023-04-25T15:01:50;16.00;6.40
530;DHT22;251;48.704;9.210;2023-04-25T15:04:18;16.00;6.20
530;DHT22;251;48.704;9.210;2023-04-25T15:06:45;15.70;5.90
530;DHT22;251;48.704;9.210;2023-04-25T15:09:13;15.50;7.20
530;DHT22;251;48.704;9.210;2023-04-25T15:11:41;15.90;7.10
530;DHT22;251;48.704;9.210;2023-04-25T15:14:09;16.30;6.30
530;DHT22;251;48.704;9.210;2023-04-25T15:16:36;16.40;3.70
530;DHT22;251;48.704;9.210;2023-04-25T15:19:02;16.90;6.20
530;DHT22;251;48.704;9.210;2023-04-25T15:21:30;16.40;4.70
530;DHT22;251;48.704;9.210;2023-04-25T15:23:57;16.00;4.50
530;DHT22;251;48.704;9.210;2023-04-25T15:26:26;15.50;4.70
530;DHT22;251;48.704;9.210;2023-04-25T15:28:53;15.30;5.30
530;DHT22;251;48.704;9.210;2023-04-25T15:31:20;15.70;4.80
530;DHT22;251;48.704;9.210;2023-04-25T15:33:46;15.30;5.90
530;DHT22;251;48.704;9.210;2023-04-25T15:36:13;15.10;6.30
530;DHT22;251;48.704;9.210;2023-04-25T15:38:41;14.70;5.60
530;DHT22;251;48.704;9.210;2023-04-25T15:41:08;14.70;6.20
530;DHT22;251;48.704;9.210;2023-04-25T15:43:37;15.20;5.40
530;DHT22;251;48.704;9.210;2023-04-25T15:46:04;15.80;6.20
530;DHT22;251;48.704;9.210;2023-04-25T15:48:33;16.30;5.00
530;DHT22;251;48.704;9.210;2023-04-25T15:51:00;16.60;3.20
530;DHT22;251;48.704;9.210;2023-04-25T15:53:27;16.20;2.20
530;DHT22;251;48.704;9.210;2023-04-25T15:55:54;15.90;3.60
530;DHT22;251;48.704;9.210;2023-04-25T15:58:20;15.50;3.70
530;DHT22;251;48.704;9.210;2023-04-25T16:00:49;15.00;4.20
530;DHT22;251;48.704;9.210;2023-04-25T16:03:16;14.40;6.20
530;DHT22;251;48.704;9.210;2023-04-25T16:05:43;14.20;6.00
530;DHT22;251;48.704;9.210;2023-04-25T16:08:09;14.20;6.80
530;DHT22;251;48.704;9.210;2023-04-25T16:10:36;14.00;6.30
530;DHT22;251;48.704;9.210;2023-04-25T16:13:03;14.00;6.60
530;DHT22;251;48.704;9.210;2023-04-25T16:15:30;13.50;8.50
530;DHT22;251;48.704;9.210;2023-04-25T16:17:58;13.40;9.30
530;DHT22;251;48.704;9.210;2023-04-25T16:20:25;13.20;9.10
530;DHT22;251;48.704;9.210;2023-04-25T16:22:52;12.90;9.70
530;DHT22;251;48.704;9.210;2023-04-25T16:25:19;12.70;10.20
530;DHT22;251;48.704;9.210;2023-04-25T16:27:47;12.50;10.60
530;DHT22;251;48.704;9.210;2023-04-25T16:30:14;12.10;13.30
530;DHT22;251;48.704;9.210;2023-04-25T16:32:42;12.20;12.90
530;DHT22;251;48.704;9.210;2023-04-25T16:35:10;12.10;13.70
530;DHT22;251;48.704;9.210;2023-04-25T16:37:37;11.50;13.70
530;DHT22;251;48.704;9.210;2023-04-25T16:40:04;11.60;15.00
530;DHT22;251;48.704;9.210;2023-04-25T16:42:33;11.50;15.30
530;DHT22;251;48.704;9.210;2023-04-25T16:45:00;11.60;15.00
530;DHT22;251;48.704;9.210;2023-04-25T16:47:27;11.10;15.00
530;DHT22;251;48.704;9.210;2023-04-25T16:49:53;11.20;16.60
530;DHT22;251;48.704;9.210;2023-04-25T16:52:21;11.10;16.50
530;DHT22;251;48.704;9.210;2023-04-25T16:54:48;11.00;16.50
530;DHT22;251;48.704;9.210;2023-04-25T16:57:15;11.20;16.60
530;DHT22;251;48.704;9.210;2023-04-25T16:59:42;10.90;16.40
530;DHT22;251;48.704;9.210;2023-04-25T17:02:11;10.80;17.10
530;DHT22;251;48.704;9.210;2023-04-25T17:04:38;10.80;17.50
530;DHT22;251;48.704;9.210;2023-04-25T17:07:05;10.90;18.20